createdAt,value
2018-09-13T00:01:21.456Z,5.33
2018-09-13T00:03:49.379Z,5.70
2018-09-13T00:06:16.995Z,5.17
2018-09-13T00:08:44.659Z,5.10
2018-09-13T00:11:12.615Z,4.50
2018-09-13T00:13:40.701Z,4.77
2018-09-13T00:16:08.229Z,4.90
2018-09-13T00:18:35.755Z,4.23
2018-09-13T00:21:03.343Z,5.47
2018-09-13T00:23:30.848Z,5.20
2018-09-13T00:25:59.305Z,5.90
2018-09-13T00:28:27.367Z,4.93
2018-09-13T00:30:55.487Z,5.17
2018-09-13T00:33:23.011Z,4.57
2018-09-13T00:35:50.919Z,4.83
2018-09-13T00:38:18.790Z,4.17
2018-09-13T00:40:47.564Z,4.67
2018-09-13T00:43:15.050Z,5.10
2018-09-13T00:45:42.598Z,4.57
2018-09-13T00:48:10.959Z,5.10
2018-09-13T00:50:38.823Z,5.00
2018-09-13T00:53:06.655Z,6.03
2018-09-13T00:55:34.127Z,4.57
2018-09-13T00:58:01.692Z,5.57
2018-09-13T01:00:29.243Z,5.20
2018-09-13T01:02:57.119Z,4.13
2018-09-13T01:05:24.623Z,4.30
2018-09-13T01:07:52.122Z,4.10
2018-09-13T01:10:19.699Z,4.13
2018-09-13T01:12:48.172Z,4.67
2018-09-13T01:15:16.215Z,4.47
2018-09-13T01:17:43.763Z,5.60
2018-09-13T01:20:11.267Z,4.23
2018-09-13T01:22:38.804Z,4.63
2018-09-13T01:25:06.413Z,4.23
2018-09-13T01:27:34.682Z,3.97
2018-09-13T01:30:02.779Z,4.40
2018-09-13T01:32:31.571Z,3.90
2018-09-13T01:34:59.663Z,5.13
2018-09-13T01:37:27.467Z,5.60
2018-09-13T01:39:54.951Z,5.23
2018-09-13T01:42:22.480Z,4.30
2018-09-13T01:44:50.027Z,3.53
2018-09-13T01:47:17.963Z,4.30
2018-09-13T01:49:45.478Z,3.50
2018-09-13T01:52:12.988Z,4.70
2018-09-13T01:54:40.620Z,3.63
2018-09-13T01:57:08.874Z,4.57
2018-09-13T01:59:36.520Z,4.43
2018-09-13T02:02:04.643Z,4.00
2018-09-13T02:04:32.629Z,4.17
2018-09-13T02:07:00.227Z,3.93
2018-09-13T02:09:28.072Z,4.47
2018-09-13T02:11:56.243Z,4.30
2018-09-13T02:14:23.754Z,4.60
2018-09-13T02:16:51.288Z,3.70
2018-09-13T02:19:18.843Z,3.60
2018-09-13T02:21:46.447Z,3.40
2018-09-13T02:24:14.035Z,3.33
2018-09-13T02:26:42.266Z,3.37
2018-09-13T02:29:09.779Z,3.63
2018-09-13T02:31:37.788Z,3.27
2018-09-13T02:34:05.795Z,3.33
2018-09-13T02:36:33.354Z,3.80
2018-09-13T02:39:00.857Z,4.20
2018-09-13T02:41:28.413Z,4.80
2018-09-13T02:43:55.922Z,4.00
2018-09-13T02:46:23.837Z,3.60
2018-09-13T02:48:51.351Z,4.47
2018-09-13T02:51:18.948Z,3.77
2018-09-13T02:53:46.487Z,4.10
2018-09-13T02:56:14.000Z,4.47
2018-09-13T02:58:41.793Z,4.87
2018-09-13T03:01:11.125Z,4.00
2018-09-13T03:03:38.991Z,5.13
2018-09-13T03:06:06.523Z,5.67
2018-09-13T03:08:34.415Z,4.60
2018-09-13T03:11:02.348Z,4.90
2018-09-13T03:13:29.872Z,5.73
2018-09-13T03:15:57.363Z,5.40
2018-09-13T03:18:24.881Z,5.40
2018-09-13T03:20:52.376Z,5.30
2018-09-13T03:23:19.967Z,5.33
2018-09-13T03:25:48.208Z,4.47
2018-09-13T03:28:15.801Z,4.83
2018-09-13T03:30:43.740Z,5.80
2018-09-13T03:33:11.314Z,5.47
2018-09-13T03:35:39.560Z,5.00
2018-09-13T03:38:07.060Z,4.93
2018-09-13T03:40:35.234Z,5.03
2018-09-13T03:43:03.087Z,5.20
2018-09-13T03:45:30.625Z,5.33
2018-09-13T03:47:58.503Z,5.67
2018-09-13T03:50:25.991Z,5.30
2018-09-13T03:52:53.504Z,4.57
2018-09-13T03:55:21.035Z,4.97
2018-09-13T03:57:48.643Z,5.33
2018-09-13T04:00:16.238Z,3.80
2018-09-13T04:02:45.035Z,4.03
2018-09-13T04:05:13.123Z,4.57
2018-09-13T04:07:40.653Z,3.80
2018-09-13T04:10:08.192Z,4.00
2018-09-13T04:12:36.616Z,4.17
2018-09-13T04:15:05.176Z,4.17
2018-09-13T04:17:32.728Z,4.47
2018-09-13T04:20:00.565Z,4.20
2018-09-13T04:22:28.132Z,4.57
2018-09-13T04:24:55.626Z,4.27
2018-09-13T04:27:23.447Z,4.30
2018-09-13T04:29:51.967Z,4.80
2018-09-13T04:32:20.101Z,3.67
2018-09-13T04:34:48.807Z,5.03
2018-09-13T04:37:16.343Z,4.50
2018-09-13T04:39:43.871Z,4.10
2018-09-13T04:42:11.930Z,5.07
2018-09-13T04:44:40.035Z,4.30
2018-09-13T04:47:07.969Z,4.90
2018-09-13T04:49:35.479Z,5.60
2018-09-13T04:52:03.063Z,5.77
2018-09-13T04:54:30.579Z,5.03
2018-09-13T04:56:58.120Z,5.00
2018-09-13T04:59:25.729Z,4.50
2018-09-13T05:01:53.680Z,3.97
2018-09-13T05:04:21.949Z,4.67
2018-09-13T05:06:49.611Z,4.83
2018-09-13T05:09:17.139Z,4.53
2018-09-13T05:11:45.018Z,3.80
2018-09-13T05:14:12.570Z,4.13
2018-09-13T05:16:40.107Z,5.00
2018-09-13T05:19:07.652Z,4.50
2018-09-13T05:21:35.175Z,4.00
2018-09-13T05:24:03.771Z,4.97
2018-09-13T05:26:31.888Z,7.40
2018-09-13T05:28:59.655Z,6.60
2018-09-13T05:31:28.374Z,6.00
2018-09-13T05:33:56.584Z,6.57
2018-09-13T05:36:24.088Z,6.00
2018-09-13T05:38:51.996Z,7.20
2018-09-13T05:41:19.951Z,6.57
2018-09-13T05:43:47.872Z,7.10
2018-09-13T05:46:15.731Z,6.10
2018-09-13T05:48:43.235Z,6.70
2018-09-13T05:51:10.786Z,5.97
2018-09-13T05:53:38.295Z,6.10
2018-09-13T05:56:05.851Z,6.70
2018-09-13T05:58:33.471Z,6.70
2018-09-13T06:01:01.336Z,5.73
2018-09-13T06:03:29.215Z,6.00
2018-09-13T06:05:56.719Z,6.40
2018-09-13T06:08:24.303Z,6.50
2018-09-13T06:10:52.696Z,7.20
2018-09-13T06:13:20.210Z,6.27
2018-09-13T06:15:47.715Z,6.27
2018-09-13T06:18:15.632Z,6.13
2018-09-13T06:20:43.498Z,5.50
2018-09-13T06:23:11.447Z,5.90
2018-09-13T06:25:38.967Z,6.97
2018-09-13T06:28:06.511Z,5.37
2018-09-13T06:30:34.967Z,5.63
2018-09-13T06:33:03.770Z,6.07
2018-09-13T06:35:31.676Z,4.83
2018-09-13T06:37:59.232Z,4.30
2018-09-13T06:40:27.305Z,4.93
2018-09-13T06:42:54.798Z,4.50
2018-09-13T06:45:22.281Z,4.67
2018-09-13T06:47:50.307Z,4.83
2018-09-13T06:50:17.844Z,4.20
2018-09-13T06:52:45.345Z,5.53
2018-09-13T06:55:12.874Z,5.90
2018-09-13T06:57:40.744Z,5.63
2018-09-13T07:00:08.292Z,5.40
2018-09-13T07:02:36.546Z,4.70
2018-09-13T07:05:04.691Z,5.93
2018-09-13T07:07:32.757Z,5.13
2018-09-13T07:10:00.279Z,4.80
2018-09-13T07:12:28.786Z,5.77
2018-09-13T07:14:56.314Z,4.80
2018-09-13T07:17:23.828Z,4.80
2018-09-13T07:19:51.451Z,6.27
2018-09-13T07:22:19.475Z,6.07
2018-09-13T07:24:47.421Z,5.83
2018-09-13T07:27:14.927Z,6.00
2018-09-13T07:29:42.449Z,6.70
2018-09-13T07:32:10.359Z,5.37
2018-09-13T07:34:38.719Z,5.30
2018-09-13T07:37:06.241Z,5.70
2018-09-13T07:39:34.324Z,6.07
2018-09-13T07:42:01.891Z,6.93
2018-09-13T07:44:29.819Z,6.20
2018-09-13T07:46:57.857Z,5.60
2018-09-13T07:49:25.484Z,4.90
2018-09-13T07:51:53.015Z,6.47
2018-09-13T07:54:20.538Z,5.90
2018-09-13T07:56:48.503Z,6.70
2018-09-13T07:59:16.015Z,5.10
2018-09-13T08:01:43.520Z,6.33
2018-09-13T08:04:11.551Z,6.77
2018-09-13T08:06:39.074Z,6.03
2018-09-13T08:09:09.490Z,5.90
2018-09-13T08:11:37.652Z,6.27
2018-09-13T08:14:05.215Z,5.30
2018-09-13T08:16:32.721Z,5.63
2018-09-13T08:19:00.763Z,5.80
2018-09-13T08:21:28.676Z,5.30
2018-09-13T08:23:56.284Z,6.13
2018-09-13T08:26:23.847Z,4.40
2018-09-13T08:28:51.375Z,6.00
2018-09-13T08:31:19.454Z,5.00
2018-09-13T08:33:47.450Z,6.63
2018-09-13T08:36:15.050Z,5.90
2018-09-13T08:38:42.647Z,5.47
2018-09-13T08:41:10.927Z,5.83
2018-09-13T08:43:38.431Z,6.13
2018-09-13T08:46:06.376Z,6.90
2018-09-13T08:48:34.300Z,6.30
2018-09-13T08:51:01.825Z,6.00
2018-09-13T08:53:30.101Z,6.20
2018-09-13T08:55:57.729Z,5.40
2018-09-13T08:58:25.223Z,5.80
2018-09-13T09:00:52.816Z,5.73
2018-09-13T09:03:20.772Z,6.30
2018-09-13T09:05:48.282Z,5.67
2018-09-13T09:08:15.779Z,5.77
2018-09-13T09:10:43.921Z,5.60
2018-09-13T09:13:11.612Z,4.60
2018-09-13T09:15:39.127Z,4.73
2018-09-13T09:18:07.180Z,5.50
2018-09-13T09:20:34.692Z,5.17
2018-09-13T09:23:03.415Z,5.50
2018-09-13T09:25:31.359Z,5.73
2018-09-13T09:27:59.392Z,5.77
2018-09-13T09:30:26.882Z,5.53
2018-09-13T09:32:54.903Z,6.20
2018-09-13T09:35:22.856Z,6.17
2018-09-13T09:37:50.385Z,5.77
2018-09-13T09:40:18.607Z,5.57
2018-09-13T09:42:46.114Z,6.20
2018-09-13T09:45:14.844Z,6.27
2018-09-13T09:47:42.786Z,5.30
2018-09-13T09:50:10.864Z,6.80
2018-09-13T09:52:38.383Z,7.03
2018-09-13T09:55:05.914Z,6.67
2018-09-13T09:57:33.559Z,6.57
2018-09-13T10:00:01.063Z,6.60
2018-09-13T10:02:28.641Z,6.60
2018-09-13T10:04:56.498Z,6.80
2018-09-13T10:07:24.074Z,6.50
2018-09-13T10:09:51.632Z,6.00
2018-09-13T10:12:19.556Z,6.37
2018-09-13T10:14:53.383Z,6.50
2018-09-13T10:17:26.407Z,7.17
2018-09-13T10:19:59.775Z,7.50
2018-09-13T10:22:32.825Z,6.27
2018-09-13T10:25:06.047Z,6.97
2018-09-13T10:27:40.199Z,6.30
2018-09-13T10:30:13.345Z,7.07
2018-09-13T10:32:47.295Z,6.00
2018-09-13T10:35:21.160Z,6.53
2018-09-13T10:37:54.719Z,6.23
2018-09-13T10:40:28.283Z,6.83
2018-09-13T10:43:02.443Z,6.77
2018-09-13T10:46:33.863Z,7.20
2018-09-13T10:49:08.265Z,6.67
2018-09-13T10:51:41.319Z,7.13
2018-09-13T10:54:12.738Z,5.80
2018-09-13T10:56:45.927Z,6.50
2018-09-13T10:59:13.629Z,6.50
2018-09-13T11:01:42.408Z,6.53
2018-09-13T11:04:10.513Z,7.77
2018-09-13T11:06:37.947Z,6.20
2018-09-13T11:09:06.431Z,6.93
2018-09-13T11:11:34.315Z,8.67
2018-09-13T11:14:12.417Z,6.73
2018-09-13T11:16:40.003Z,7.70
2018-09-13T11:19:07.585Z,6.50
2018-09-13T11:21:35.176Z,7.10
2018-09-13T11:24:03.447Z,7.07
2018-09-13T11:26:30.943Z,6.43
2018-09-13T11:28:58.471Z,6.70
2018-09-13T11:31:26.434Z,6.33
2018-09-13T11:33:54.624Z,6.97
2018-09-13T11:36:22.179Z,7.17
2018-09-13T11:38:49.687Z,7.90
2018-09-13T11:41:17.287Z,7.93
2018-09-13T11:43:45.135Z,8.87
2018-09-13T11:46:13.178Z,7.70
2018-09-13T11:48:41.433Z,8.70
2018-09-13T11:51:08.959Z,8.63
2018-09-13T11:53:36.489Z,7.60
2018-09-13T11:56:04.706Z,8.90
2018-09-13T11:58:32.228Z,8.20
2018-09-13T12:00:59.852Z,8.10
2018-09-13T12:03:27.711Z,7.47
2018-09-13T12:05:55.244Z,7.80
2018-09-13T12:08:22.913Z,7.50
2018-09-13T12:10:50.983Z,6.50
2018-09-13T12:13:18.617Z,8.37
2018-09-13T12:15:46.119Z,7.67
2018-09-13T12:18:13.781Z,7.77
2018-09-13T12:20:42.107Z,6.63
2018-09-13T12:23:10.225Z,7.13
2018-09-13T12:25:37.735Z,6.37
2018-09-13T12:28:05.845Z,7.37
2018-09-13T12:30:34.122Z,7.60
2018-09-13T12:33:02.367Z,6.97
2018-09-13T12:35:30.273Z,7.00
2018-09-13T12:37:57.787Z,6.93
2018-09-13T12:40:25.316Z,6.60
2018-09-13T12:42:53.487Z,7.17
2018-09-13T12:45:21.050Z,7.27
2018-09-13T12:47:49.220Z,7.40
2018-09-13T12:50:16.794Z,6.70
2018-09-13T12:52:44.315Z,7.47
2018-09-13T12:55:12.398Z,6.53
2018-09-13T12:57:40.289Z,7.10
2018-09-13T13:00:08.503Z,6.73
2018-09-13T13:02:37.888Z,5.70
2018-09-13T13:05:05.479Z,7.20
2018-09-13T13:07:33.711Z,6.60
2018-09-13T13:10:01.765Z,7.07
2018-09-13T13:12:29.733Z,6.60
2018-09-13T13:14:57.250Z,6.77
2018-09-13T13:17:25.448Z,6.77
2018-09-13T13:19:53.703Z,7.40
2018-09-13T13:22:21.279Z,6.70
2018-09-13T13:24:49.935Z,7.00
2018-09-13T13:27:17.534Z,7.47
2018-09-13T13:29:45.039Z,6.53
2018-09-13T13:32:13.264Z,6.90
2018-09-13T13:34:41.369Z,7.50
2018-09-13T13:37:08.905Z,7.87
2018-09-13T13:39:36.411Z,8.40
2018-09-13T13:42:04.483Z,7.97
2018-09-13T13:44:31.987Z,6.30
2018-09-13T13:47:00.059Z,7.00
2018-09-13T13:49:28.247Z,6.53
2018-09-13T13:51:55.778Z,7.20
2018-09-13T13:54:23.291Z,6.90
2018-09-13T13:56:50.866Z,6.20
2018-09-13T13:59:18.829Z,6.13
2018-09-13T14:01:47.202Z,7.27
2018-09-13T14:04:15.196Z,6.53
2018-09-13T14:06:43.123Z,6.80
2018-09-13T14:09:12.602Z,6.87
2018-09-13T14:11:40.912Z,6.20
2018-09-13T14:14:08.558Z,6.57
2018-09-13T14:16:37.135Z,7.50
2018-09-13T14:19:04.744Z,6.80
2018-09-13T14:21:32.244Z,6.33
2018-09-13T14:23:59.839Z,5.60
2018-09-13T14:26:29.252Z,6.07
2018-09-13T14:28:56.810Z,5.87
2018-09-13T14:31:24.839Z,7.20
2018-09-13T14:33:52.732Z,5.97
2018-09-13T14:36:20.536Z,7.30
2018-09-13T14:38:48.522Z,6.70
2018-09-13T14:41:16.050Z,7.53
2018-09-13T14:43:43.832Z,6.77
2018-09-13T14:46:11.456Z,6.53
2018-09-13T14:48:39.593Z,6.17
2018-09-13T14:51:07.113Z,7.60
2018-09-13T14:53:35.312Z,7.30
2018-09-13T14:56:02.950Z,7.20
2018-09-13T14:58:30.642Z,8.27
2018-09-13T15:00:58.253Z,7.30
2018-09-13T15:03:26.304Z,10.00
2018-09-13T15:05:53.850Z,6.57
2018-09-13T15:08:22.128Z,6.70
2018-09-13T15:10:50.187Z,7.70
2018-09-13T15:13:17.755Z,7.93
2018-09-13T15:15:45.642Z,8.20
2018-09-13T15:18:13.253Z,8.77
2018-09-13T15:20:41.370Z,7.57
2018-09-13T15:23:08.970Z,8.60
2018-09-13T15:25:36.984Z,8.13
2018-09-13T15:28:04.767Z,7.70
2018-09-13T15:30:32.367Z,8.17
2018-09-13T15:33:00.665Z,8.70
2018-09-13T15:35:28.610Z,7.30
2018-09-13T15:37:56.217Z,6.93
2018-09-13T15:40:23.746Z,7.67
2018-09-13T15:42:51.798Z,6.90
2018-09-13T15:45:19.712Z,7.23
2018-09-13T15:47:47.545Z,8.13
2018-09-13T15:50:15.091Z,7.13
2018-09-13T15:52:42.665Z,6.60
2018-09-13T15:55:10.163Z,5.90
2018-09-13T15:57:37.673Z,7.43
2018-09-13T16:00:06.811Z,6.00
2018-09-13T16:02:34.805Z,6.17
2018-09-13T16:05:03.670Z,6.60
2018-09-13T16:07:31.207Z,8.20
2018-09-13T16:09:58.771Z,7.20
2018-09-13T16:12:26.726Z,6.13
2018-09-13T16:14:54.210Z,6.73
2018-09-13T16:17:21.713Z,7.07
2018-09-13T16:19:49.325Z,5.90
2018-09-13T16:22:17.842Z,6.10
2018-09-13T16:24:45.543Z,8.60
2018-09-13T16:27:13.050Z,9.30
2018-09-13T16:29:40.617Z,6.97
2018-09-13T16:32:08.481Z,7.30
2018-09-13T16:34:36.646Z,7.57
2018-09-13T16:37:11.893Z,7.80
2018-09-13T16:39:45.303Z,9.57
2018-09-13T16:42:19.830Z,7.63
2018-09-13T16:44:47.364Z,5.63
2018-09-13T16:47:32.142Z,7.77
2018-09-13T16:50:01.287Z,8.83
2018-09-13T16:52:30.138Z,7.13
2018-09-13T16:54:57.757Z,6.27
2018-09-13T16:57:25.705Z,5.67
2018-09-13T16:59:53.862Z,5.37
2018-09-13T17:02:21.457Z,5.77
2018-09-13T17:04:49.450Z,8.80
2018-09-13T17:07:16.977Z,7.47
2018-09-13T17:09:45.130Z,7.40
2018-09-13T17:12:14.082Z,6.70
2018-09-13T17:14:41.620Z,6.50
2018-09-13T17:17:09.465Z,6.83
2018-09-13T17:19:36.990Z,6.10
2018-09-13T17:22:05.016Z,6.70
2018-09-13T17:24:32.539Z,6.33
2018-09-13T17:27:00.630Z,6.43
2018-09-13T17:29:28.260Z,6.33
2018-09-13T17:31:56.264Z,8.27
2018-09-13T17:34:24.273Z,6.70
2018-09-13T17:36:52.544Z,7.60
2018-09-13T17:39:20.106Z,7.03
2018-09-13T17:41:48.197Z,7.90
2018-09-13T17:44:15.716Z,9.47
2018-09-13T17:46:43.256Z,9.63
2018-09-13T17:49:11.257Z,9.73
2018-09-13T17:51:38.769Z,9.90
2018-09-13T17:54:08.052Z,10.33
2018-09-13T17:56:36.162Z,9.90
2018-09-13T17:59:03.737Z,9.73
2018-09-13T18:01:31.310Z,7.10
2018-09-13T18:03:59.092Z,6.97
2018-09-13T18:06:27.020Z,6.73
2018-09-13T18:08:54.927Z,6.73
2018-09-13T18:11:23.041Z,6.37
2018-09-13T18:13:50.916Z,5.63
2018-09-13T18:16:18.772Z,7.63
2018-09-13T18:18:46.864Z,7.60
2018-09-13T18:21:14.778Z,6.67
2018-09-13T18:23:43.276Z,6.20
2018-09-13T18:26:10.922Z,7.43
2018-09-13T18:28:39.075Z,6.57
2018-09-13T18:31:06.999Z,10.47
2018-09-13T18:33:34.971Z,7.70
2018-09-13T18:36:03.000Z,8.40
2018-09-13T18:38:30.644Z,7.70
2018-09-13T18:40:59.041Z,6.93
2018-09-13T18:43:27.183Z,6.20
2018-09-13T18:45:55.409Z,6.37
2018-09-13T18:48:23.383Z,6.37
2018-09-13T18:50:51.763Z,7.70
2018-09-13T18:53:19.635Z,6.47
2018-09-13T18:55:47.530Z,6.20
2018-09-13T18:58:16.067Z,6.00
2018-09-13T19:00:44.256Z,7.73
2018-09-13T19:03:11.794Z,8.43
2018-09-13T19:05:39.875Z,6.67
2018-09-13T19:08:07.941Z,7.87
2018-09-13T19:10:35.763Z,8.93
2018-09-13T19:13:03.784Z,9.60
2018-09-13T19:15:31.930Z,8.57
2018-09-13T19:18:01.644Z,7.37
2018-09-13T19:20:29.410Z,9.30
2018-09-13T19:22:57.109Z,8.27
2018-09-13T19:25:25.490Z,6.93
2018-09-13T19:27:54.233Z,9.40
2018-09-13T19:30:22.080Z,8.80
2018-09-13T19:32:50.883Z,10.23
2018-09-13T19:35:18.963Z,9.93
2018-09-13T19:37:46.610Z,8.73
2018-09-13T19:40:15.816Z,7.30
2018-09-13T19:42:46.971Z,6.77
2018-09-13T19:45:14.908Z,7.57
2018-09-13T19:47:43.028Z,8.10
2018-09-13T19:50:11.456Z,7.80
2018-09-13T19:52:39.095Z,11.00
2018-09-13T19:55:07.032Z,9.80
2018-09-13T19:57:34.569Z,7.33
2018-09-13T20:00:02.142Z,8.50
2018-09-13T20:02:30.510Z,9.70
2018-09-13T20:04:58.968Z,7.67
2018-09-13T20:07:27.136Z,11.00
2018-09-13T20:09:55.060Z,10.90
2018-09-13T20:12:23.096Z,8.07
2018-09-13T20:14:50.897Z,11.20
2018-09-13T20:17:18.436Z,8.70
2018-09-13T20:19:46.492Z,7.70
2018-09-13T20:22:14.507Z,8.50
2018-09-13T20:24:42.694Z,7.50
2018-09-13T20:27:10.241Z,7.30
2018-09-13T20:29:38.120Z,6.90
2018-09-13T20:32:06.204Z,6.63
2018-09-13T20:34:34.887Z,7.20
2018-09-13T20:37:02.455Z,9.20
2018-09-13T20:39:30.747Z,7.20
2018-09-13T20:41:58.767Z,6.33
2018-09-13T20:44:26.279Z,5.90
2018-09-13T20:46:53.898Z,7.10
2018-09-13T20:49:22.207Z,8.43
2018-09-13T20:51:50.345Z,11.53
2018-09-13T20:54:18.243Z,9.13
2018-09-13T20:56:46.833Z,8.37
2018-09-13T20:59:14.901Z,8.33
2018-09-13T21:01:42.445Z,9.47
2018-09-13T21:04:10.004Z,7.50
2018-09-13T21:06:37.610Z,7.70
2018-09-13T21:09:07.767Z,7.03
2018-09-13T21:11:35.559Z,7.27
2018-09-13T21:15:32.890Z,6.10
2018-09-13T21:18:00.433Z,6.30
2018-09-13T21:20:28.822Z,6.97
2018-09-13T21:22:56.818Z,6.40
2018-09-13T21:25:24.977Z,6.97
2018-09-13T21:27:52.594Z,6.30
2018-09-13T21:30:20.639Z,7.60
2018-09-13T21:32:48.667Z,7.30
2018-09-13T21:35:17.266Z,7.37
2018-09-13T21:37:45.849Z,6.30
2018-09-13T21:40:14.026Z,10.70
2018-09-13T21:42:41.639Z,7.63
2018-09-13T21:45:09.817Z,6.80
2018-09-13T21:47:38.359Z,6.80
2018-09-13T21:50:06.212Z,7.10
2018-09-13T21:52:33.752Z,10.20
2018-09-13T21:55:01.341Z,8.23
2018-09-13T21:57:29.188Z,6.10
2018-09-13T21:59:58.042Z,6.17
2018-09-13T22:02:25.564Z,4.47
2018-09-13T22:04:53.347Z,5.30
2018-09-13T22:07:21.450Z,5.37
2018-09-13T22:09:49.553Z,3.67
2018-09-13T22:12:18.259Z,4.43
2018-09-13T22:14:46.162Z,4.13
2018-09-13T22:17:13.711Z,4.87
2018-09-13T22:19:42.041Z,6.37
2018-09-13T22:22:09.629Z,7.10
2018-09-13T22:24:37.164Z,6.40
2018-09-13T22:27:04.775Z,6.30
2018-09-13T22:29:32.922Z,5.00
2018-09-13T22:32:01.039Z,4.33
2018-09-13T22:34:29.048Z,6.10
2018-09-13T22:36:56.578Z,5.13
2018-09-13T22:39:24.141Z,4.23
2018-09-13T22:41:52.065Z,5.80
2018-09-13T22:44:20.032Z,4.50
2018-09-13T22:46:47.536Z,4.60
2018-09-13T22:49:15.439Z,4.37
2018-09-13T22:51:43.391Z,3.40
2018-09-13T22:54:10.882Z,3.00
2018-09-13T22:56:39.043Z,4.00
2018-09-13T22:59:06.583Z,5.27
2018-09-13T23:01:34.103Z,5.00
2018-09-13T23:04:01.633Z,3.90
2018-09-13T23:06:29.139Z,3.20
2018-09-13T23:08:57.009Z,3.50
2018-09-13T23:11:25.091Z,4.80
2018-09-13T23:13:52.900Z,5.40
2018-09-13T23:16:21.039Z,5.10
2018-09-13T23:18:48.535Z,4.10
2018-09-13T23:21:17.083Z,4.10
2018-09-13T23:23:45.099Z,4.03
2018-09-13T23:26:12.655Z,5.40
2018-09-13T23:28:40.569Z,6.07
2018-09-13T23:31:09.387Z,4.40
2018-09-13T23:33:37.675Z,4.43
2018-09-13T23:36:05.199Z,4.60
2018-09-13T23:38:32.755Z,5.23
2018-09-13T23:41:00.856Z,4.93
2018-09-13T23:43:28.384Z,4.47
2018-09-13T23:45:55.899Z,4.57
2018-09-13T23:48:23.962Z,5.30
2018-09-13T23:50:51.472Z,5.20
2018-09-13T23:53:19.553Z,5.57
2018-09-13T23:55:47.089Z,7.00
2018-09-13T23:58:14.603Z,5.30
